createdAt,value
2017-12-31T00:00:45.342Z,39.78
2017-12-31T00:02:00.777Z,34.20
2017-12-31T00:03:03.488Z,45.80
2017-12-31T00:04:05.954Z,48.53
2017-12-31T00:05:08.462Z,35.22
2017-12-31T00:06:11.010Z,47.03
2017-12-31T00:07:13.524Z,46.90
2017-12-31T00:08:15.995Z,39.97
2017-12-31T00:09:18.506Z,44.15
2017-12-31T00:10:21.050Z,47.20
2017-12-31T00:11:23.649Z,44.55
2017-12-31T00:12:26.194Z,43.80
2017-12-31T00:13:28.704Z,46.40
2017-12-31T00:14:31.228Z,60.80
2017-12-31T00:15:34.488Z,35.78
2017-12-31T00:16:37.016Z,47.22
2017-12-31T00:17:40.405Z,55.22
2017-12-31T00:18:42.894Z,44.80
2017-12-31T00:19:46.412Z,47.10
2017-12-31T00:20:49.086Z,31.65
2017-12-31T00:21:51.635Z,50.08
2017-12-31T00:22:54.190Z,44.30
2017-12-31T00:23:56.715Z,46.05
2017-12-31T00:25:00.743Z,45.55
2017-12-31T00:26:03.532Z,63.05
2017-12-31T00:27:06.980Z,48.83
2017-12-31T00:28:09.530Z,32.65
2017-12-31T00:29:12.194Z,47.40
2017-12-31T00:30:14.736Z,48.58
2017-12-31T00:31:17.230Z,43.70
2017-12-31T00:32:19.745Z,45.95
2017-12-31T00:33:22.537Z,41.17
2017-12-31T00:34:25.839Z,53.17
2017-12-31T00:35:29.864Z,38.78
2017-12-31T00:36:33.322Z,51.67
2017-12-31T00:37:35.897Z,47.20
2017-12-31T00:38:39.730Z,46.17
2017-12-31T00:39:43.063Z,36.25
2017-12-31T00:40:45.720Z,49.97
2017-12-31T00:41:48.221Z,54.50
2017-12-31T00:42:50.992Z,48.97
2017-12-31T00:43:53.518Z,53.10
2017-12-31T00:44:56.016Z,55.83
2017-12-31T00:45:58.581Z,52.62
2017-12-31T00:47:02.936Z,43.15
2017-12-31T00:48:05.441Z,42.95
2017-12-31T00:49:08.085Z,58.30
2017-12-31T00:50:10.693Z,60.42
2017-12-31T00:51:13.289Z,48.72
2017-12-31T00:52:16.445Z,42.85
2017-12-31T00:53:19.067Z,61.47
2017-12-31T00:54:22.367Z,44.58
2017-12-31T00:55:25.138Z,55.78
2017-12-31T00:56:27.807Z,45.83
2017-12-31T00:57:30.421Z,47.70
2017-12-31T00:58:33.101Z,44.55
2017-12-31T00:59:35.799Z,46.15
2017-12-31T01:00:38.320Z,46.80
2017-12-31T01:01:41.592Z,48.33
2017-12-31T01:02:44.075Z,50.65
2017-12-31T01:03:47.366Z,53.67
2017-12-31T01:04:50.727Z,50.65
2017-12-31T01:05:53.299Z,62.70
2017-12-31T01:06:55.808Z,59.20
2017-12-31T01:07:59.049Z,55.53
2017-12-31T01:09:01.535Z,50.92
2017-12-31T01:10:05.087Z,55.63
2017-12-31T01:11:07.589Z,45.47
2017-12-31T01:12:10.645Z,60.12
2017-12-31T01:13:13.133Z,62.70
2017-12-31T01:14:15.609Z,45.45
2017-12-31T01:15:18.124Z,61.22
2017-12-31T01:16:21.400Z,64.10
2017-12-31T01:17:24.153Z,59.15
2017-12-31T01:18:26.724Z,62.08
2017-12-31T01:19:29.213Z,55.15
2017-12-31T01:20:31.725Z,54.88
2017-12-31T01:21:34.224Z,48.45
2017-12-31T01:22:36.721Z,56.50
2017-12-31T01:23:39.210Z,58.20
2017-12-31T01:24:42.474Z,42.30
2017-12-31T01:25:44.961Z,40.55
2017-12-31T01:26:47.637Z,65.40
2017-12-31T01:27:50.152Z,39.25
2017-12-31T01:28:52.680Z,74.57
2017-12-31T01:29:55.197Z,51.20
2017-12-31T01:30:57.718Z,60.08
2017-12-31T01:32:00.206Z,65.20
2017-12-31T01:33:02.718Z,47.85
2017-12-31T01:34:05.261Z,46.65
2017-12-31T01:35:07.800Z,43.75
2017-12-31T01:36:10.456Z,48.67
2017-12-31T01:37:12.978Z,48.87
2017-12-31T01:38:15.496Z,33.72
2017-12-31T01:39:18.079Z,43.80
2017-12-31T01:40:21.455Z,39.63
2017-12-31T01:41:23.976Z,53.72
2017-12-31T01:42:27.243Z,46.95
2017-12-31T01:43:30.456Z,44.45
2017-12-31T01:44:32.937Z,41.92
2017-12-31T01:45:35.421Z,29.35
2017-12-31T01:46:37.993Z,22.40
2017-12-31T01:47:41.583Z,32.10
2017-12-31T01:48:55.791Z,46.83
2017-12-31T01:49:59.039Z,31.95
2017-12-31T01:51:14.413Z,28.55
2017-12-31T01:52:16.962Z,32.13
2017-12-31T01:53:19.543Z,28.92
2017-12-31T01:54:22.103Z,27.73
2017-12-31T01:55:25.354Z,27.42
2017-12-31T01:56:28.621Z,30.95
2017-12-31T01:57:31.122Z,25.05
2017-12-31T01:58:33.592Z,26.75
2017-12-31T01:59:36.072Z,32.05
2017-12-31T02:00:39.312Z,28.58
2017-12-31T02:01:41.827Z,29.70
2017-12-31T02:02:44.309Z,25.80
2017-12-31T02:03:47.575Z,30.85
2017-12-31T02:04:50.086Z,31.87
2017-12-31T02:05:53.500Z,23.35
2017-12-31T02:06:56.779Z,30.52
2017-12-31T02:07:59.243Z,30.25
2017-12-31T02:09:01.737Z,26.67
2017-12-31T02:10:04.974Z,37.50
2017-12-31T02:11:08.235Z,35.47
2017-12-31T02:12:10.758Z,38.95
2017-12-31T02:13:13.265Z,41.92
2017-12-31T02:14:15.799Z,37.03
2017-12-31T02:15:18.283Z,36.40
2017-12-31T02:16:20.764Z,32.20
2017-12-31T02:17:23.259Z,23.45
2017-12-31T02:18:25.774Z,42.35
2017-12-31T02:19:29.079Z,34.50
2017-12-31T02:20:31.573Z,36.42
2017-12-31T02:21:34.056Z,37.25
2017-12-31T02:22:36.540Z,37.80
2017-12-31T02:23:39.047Z,41.13
2017-12-31T02:24:41.532Z,30.08
2017-12-31T02:25:44.024Z,33.70
2017-12-31T02:26:46.511Z,34.90
2017-12-31T02:27:48.992Z,42.90
2017-12-31T02:28:51.490Z,28.48
2017-12-31T02:29:54.743Z,47.10
2017-12-31T02:30:57.547Z,49.95
2017-12-31T02:32:00.816Z,26.87
2017-12-31T02:33:04.239Z,42.67
2017-12-31T02:34:06.752Z,42.03
2017-12-31T02:35:09.281Z,36.10
2017-12-31T02:36:11.825Z,41.95
2017-12-31T02:37:14.361Z,44.00
2017-12-31T02:38:16.914Z,36.28
2017-12-31T02:39:19.418Z,36.95
2017-12-31T02:40:22.272Z,43.67
2017-12-31T02:41:25.519Z,38.67
2017-12-31T02:42:28.938Z,46.67
2017-12-31T02:43:31.419Z,40.17
2017-12-31T02:44:33.914Z,38.15
2017-12-31T02:45:36.402Z,40.28
2017-12-31T02:46:38.887Z,40.78
2017-12-31T02:47:41.377Z,36.38
2017-12-31T02:48:44.607Z,47.38
2017-12-31T02:49:47.088Z,34.20
2017-12-31T02:50:49.587Z,41.37
2017-12-31T02:51:52.058Z,40.00
2017-12-31T02:52:54.533Z,34.78
2017-12-31T02:53:57.043Z,34.83
2017-12-31T02:55:00.367Z,38.35
2017-12-31T02:56:02.859Z,40.78
2017-12-31T02:57:05.696Z,36.33
2017-12-31T02:58:08.165Z,43.65
2017-12-31T02:59:10.632Z,35.55
2017-12-31T03:00:13.110Z,45.55
2017-12-31T03:01:15.604Z,45.00
2017-12-31T03:02:18.869Z,35.70
2017-12-31T03:03:21.332Z,32.35
2017-12-31T03:04:23.802Z,34.70
2017-12-31T03:05:26.288Z,39.38
2017-12-31T03:06:28.801Z,38.85
2017-12-31T03:07:31.303Z,45.35
2017-12-31T03:08:33.785Z,45.08
2017-12-31T03:09:36.271Z,49.03
2017-12-31T03:10:38.759Z,36.13
2017-12-31T03:11:41.250Z,38.88
2017-12-31T03:12:43.741Z,41.88
2017-12-31T03:13:46.224Z,32.92
2017-12-31T03:14:48.695Z,45.40
2017-12-31T03:15:51.197Z,41.45
2017-12-31T03:16:53.677Z,36.17
2017-12-31T03:17:56.160Z,44.45
2017-12-31T03:18:59.411Z,45.47
2017-12-31T03:20:01.884Z,39.97
2017-12-31T03:21:05.135Z,44.83
2017-12-31T03:22:08.569Z,48.30
2017-12-31T03:23:11.799Z,47.13
2017-12-31T03:24:15.039Z,38.95
2017-12-31T03:25:17.535Z,34.97
2017-12-31T03:26:20.023Z,38.28
2017-12-31T03:27:23.270Z,42.28
2017-12-31T03:28:25.756Z,44.17
2017-12-31T03:29:28.273Z,34.00
2017-12-31T03:30:30.828Z,35.97
2017-12-31T03:31:34.079Z,38.42
2017-12-31T03:32:36.574Z,35.83
2017-12-31T03:33:39.048Z,41.72
2017-12-31T03:34:42.298Z,45.17
2017-12-31T03:35:44.785Z,46.65
2017-12-31T03:36:47.278Z,41.40
2017-12-31T03:37:50.538Z,41.37
2017-12-31T03:38:53.011Z,46.67
2017-12-31T03:39:55.489Z,32.88
2017-12-31T03:40:58.172Z,43.15
2017-12-31T03:42:00.649Z,41.78
2017-12-31T03:43:04.717Z,32.90
2017-12-31T03:44:07.198Z,33.28
2017-12-31T03:45:09.757Z,43.85
2017-12-31T03:46:12.241Z,48.65
2017-12-31T03:47:14.714Z,38.83
2017-12-31T03:48:17.220Z,45.63
2017-12-31T03:49:19.688Z,41.55
2017-12-31T03:50:22.949Z,42.72
2017-12-31T03:51:25.428Z,46.95
2017-12-31T03:52:27.910Z,44.92
2017-12-31T03:53:31.155Z,41.28
2017-12-31T03:54:33.638Z,44.42
2017-12-31T03:55:36.192Z,53.35
2017-12-31T03:56:38.672Z,45.70
2017-12-31T03:57:42.329Z,46.83
2017-12-31T03:58:44.830Z,53.28
2017-12-31T03:59:47.380Z,43.60
2017-12-31T04:00:49.858Z,43.17
2017-12-31T04:01:52.330Z,51.90
2017-12-31T04:02:54.824Z,43.28
2017-12-31T04:03:57.303Z,31.52
2017-12-31T04:04:59.798Z,47.70
2017-12-31T04:06:02.290Z,41.85
2017-12-31T04:07:05.553Z,46.90
2017-12-31T04:08:08.076Z,44.08
2017-12-31T04:09:10.551Z,48.58
2017-12-31T04:10:13.053Z,40.55
2017-12-31T04:11:15.517Z,37.20
2017-12-31T04:12:18.088Z,54.35
2017-12-31T04:13:20.566Z,45.25
2017-12-31T04:14:23.052Z,45.70
2017-12-31T04:15:26.299Z,45.05
2017-12-31T04:16:28.786Z,44.78
2017-12-31T04:17:31.271Z,32.78
2017-12-31T04:18:33.738Z,35.92
2017-12-31T04:19:36.225Z,42.38
2017-12-31T04:20:38.705Z,38.95
2017-12-31T04:21:41.973Z,38.95
2017-12-31T04:22:44.472Z,47.65
2017-12-31T04:23:48.580Z,33.30
2017-12-31T04:24:51.068Z,47.03
2017-12-31T04:25:53.544Z,37.45
2017-12-31T04:26:56.016Z,41.95
2017-12-31T04:27:58.512Z,31.40
2017-12-31T04:29:00.989Z,38.53
2017-12-31T04:30:03.472Z,32.55
2017-12-31T04:31:05.934Z,35.90
2017-12-31T04:32:09.225Z,26.98
2017-12-31T04:33:12.148Z,37.83
2017-12-31T04:34:14.617Z,38.13
2017-12-31T04:35:17.093Z,31.73
2017-12-31T04:36:19.605Z,26.02
2017-12-31T04:37:22.106Z,32.33
2017-12-31T04:38:25.371Z,30.15
2017-12-31T04:39:27.857Z,29.87
2017-12-31T04:40:30.338Z,22.92
2017-12-31T04:41:33.580Z,29.67
2017-12-31T04:42:36.077Z,29.17
2017-12-31T04:43:38.563Z,26.17
2017-12-31T04:44:41.822Z,32.28
2017-12-31T04:45:44.308Z,23.38
2017-12-31T04:46:46.789Z,26.27
2017-12-31T04:47:50.040Z,28.02
2017-12-31T04:48:52.604Z,31.70
2017-12-31T04:49:55.077Z,21.35
2017-12-31T04:50:57.552Z,23.23
2017-12-31T04:52:00.026Z,32.22
2017-12-31T04:53:02.510Z,27.80
2017-12-31T04:54:05.025Z,30.37
2017-12-31T04:55:07.493Z,20.70
2017-12-31T04:56:10.037Z,25.00
2017-12-31T04:57:12.508Z,18.60
2017-12-31T04:58:15.793Z,26.83
2017-12-31T04:59:19.102Z,21.58
2017-12-31T05:00:40.879Z,22.85
2017-12-31T05:01:43.377Z,20.33
2017-12-31T05:02:45.837Z,15.77
2017-12-31T05:03:48.327Z,23.00
2017-12-31T05:04:51.599Z,17.85
2017-12-31T05:05:54.090Z,20.62
2017-12-31T05:06:58.163Z,17.80
2017-12-31T05:08:00.620Z,21.65
2017-12-31T05:09:03.099Z,19.02
2017-12-31T05:10:05.590Z,24.52
2017-12-31T05:11:08.067Z,20.60
2017-12-31T05:12:11.327Z,18.80
2017-12-31T05:13:13.805Z,20.65
2017-12-31T05:14:17.223Z,19.75
2017-12-31T05:15:20.500Z,17.40
2017-12-31T05:16:22.969Z,17.10
2017-12-31T05:17:25.477Z,22.58
2017-12-31T05:18:27.953Z,15.10
2017-12-31T05:19:30.511Z,21.55
2017-12-31T05:20:33.030Z,17.48
2017-12-31T05:21:35.540Z,17.73
2017-12-31T05:22:38.786Z,13.68
2017-12-31T05:23:41.438Z,18.05
2017-12-31T05:24:43.919Z,17.33
2017-12-31T05:25:46.382Z,21.60
2017-12-31T05:26:49.814Z,18.05
2017-12-31T05:27:52.288Z,16.37
2017-12-31T05:28:54.757Z,15.13
2017-12-31T05:29:57.243Z,15.60
2017-12-31T05:31:00.510Z,17.65
2017-12-31T05:32:03.914Z,15.18
2017-12-31T05:33:07.165Z,15.65
2017-12-31T05:34:09.658Z,15.95
2017-12-31T05:35:12.835Z,18.10
2017-12-31T05:36:15.337Z,14.68
2017-12-31T05:37:18.572Z,15.00
2017-12-31T05:38:21.650Z,15.90
2017-12-31T05:39:24.108Z,14.07
2017-12-31T05:40:26.590Z,11.75
2017-12-31T05:41:29.093Z,11.65
2017-12-31T05:42:32.409Z,12.90
2017-12-31T05:43:35.656Z,12.73
2017-12-31T05:44:39.092Z,18.90
2017-12-31T05:45:42.375Z,15.43
2017-12-31T05:46:44.892Z,14.95
2017-12-31T05:47:47.356Z,13.00
2017-12-31T05:48:49.874Z,16.67
2017-12-31T05:49:52.354Z,14.95
2017-12-31T05:50:54.835Z,15.45
2017-12-31T05:51:57.426Z,23.30
2017-12-31T05:52:59.917Z,20.10
2017-12-31T05:54:02.404Z,13.20
2017-12-31T05:55:04.889Z,17.58
2017-12-31T05:56:07.408Z,22.52
2017-12-31T05:57:09.966Z,21.12
2017-12-31T05:58:13.215Z,14.18
2017-12-31T05:59:15.687Z,20.20
2017-12-31T06:00:18.165Z,14.32
2017-12-31T06:01:20.638Z,18.35
2017-12-31T06:02:23.140Z,13.13
2017-12-31T06:03:25.648Z,12.95
2017-12-31T06:04:28.141Z,11.23
2017-12-31T06:05:30.667Z,12.30
2017-12-31T06:06:33.147Z,20.60
2017-12-31T06:07:35.657Z,17.58
2017-12-31T06:08:38.131Z,19.25
2017-12-31T06:09:40.622Z,16.90
2017-12-31T06:10:43.882Z,12.60
2017-12-31T06:11:46.357Z,14.32
2017-12-31T06:12:48.858Z,14.98
2017-12-31T06:13:51.358Z,11.70
2017-12-31T06:14:53.848Z,14.73
2017-12-31T06:15:56.321Z,12.75
2017-12-31T06:16:58.805Z,11.05
2017-12-31T06:18:01.294Z,17.80
2017-12-31T06:19:04.551Z,13.07
2017-12-31T06:20:07.021Z,17.92
2017-12-31T06:21:09.499Z,14.87
2017-12-31T06:22:11.996Z,11.12
2017-12-31T06:23:15.258Z,11.07
2017-12-31T06:24:17.739Z,13.00
2017-12-31T06:25:20.263Z,11.80
2017-12-31T06:26:22.739Z,10.30
2017-12-31T06:27:25.226Z,20.80
2017-12-31T06:28:27.722Z,13.85
2017-12-31T06:29:30.217Z,12.18
2017-12-31T06:30:33.464Z,12.60
2017-12-31T06:31:35.933Z,14.60
2017-12-31T06:32:38.424Z,9.98
2017-12-31T06:33:40.909Z,10.15
2017-12-31T06:34:44.156Z,12.48
2017-12-31T06:35:46.692Z,13.82
2017-12-31T06:36:49.171Z,17.98
2017-12-31T06:37:51.665Z,14.95
2017-12-31T06:38:54.174Z,15.95
2017-12-31T06:39:57.421Z,9.18
2017-12-31T06:41:00.638Z,15.82
2017-12-31T06:42:03.192Z,11.90
2017-12-31T06:43:05.681Z,10.90
2017-12-31T06:44:08.964Z,15.05
2017-12-31T06:45:11.452Z,10.70
2017-12-31T06:46:13.937Z,15.55
2017-12-31T06:47:16.406Z,18.83
2017-12-31T06:48:18.895Z,11.35
2017-12-31T06:49:22.157Z,12.43
2017-12-31T06:50:25.431Z,16.95
2017-12-31T06:51:27.912Z,17.20
2017-12-31T06:52:31.153Z,20.12
2017-12-31T06:53:33.634Z,21.45
2017-12-31T06:54:36.124Z,14.05
2017-12-31T06:55:38.676Z,20.50
2017-12-31T06:56:41.159Z,19.33
2017-12-31T06:57:43.627Z,16.33
2017-12-31T06:58:46.109Z,16.85
2017-12-31T06:59:51.533Z,20.70
2017-12-31T07:00:54.028Z,15.63
2017-12-31T07:01:57.292Z,32.38
2017-12-31T07:02:59.773Z,22.52
2017-12-31T07:04:02.258Z,17.62
2017-12-31T07:05:05.524Z,23.45
2017-12-31T07:06:08.024Z,31.65
2017-12-31T07:07:11.396Z,23.48
2017-12-31T07:08:13.881Z,23.00
2017-12-31T07:09:16.362Z,19.65
2017-12-31T07:10:18.918Z,20.15
2017-12-31T07:11:22.120Z,17.67
2017-12-31T07:12:24.602Z,25.85
2017-12-31T07:13:27.854Z,21.70
2017-12-31T07:14:30.326Z,21.08
2017-12-31T07:15:32.812Z,17.73
2017-12-31T07:16:36.063Z,27.45
2017-12-31T07:17:38.555Z,20.80
2017-12-31T07:18:41.054Z,19.00
2017-12-31T07:32:43.560Z,21.80
2017-12-31T07:33:46.071Z,26.35
2017-12-31T07:34:48.571Z,19.30
2017-12-31T07:35:51.047Z,20.80
2017-12-31T07:36:53.523Z,16.23
2017-12-31T07:37:56.015Z,20.60
2017-12-31T07:38:58.525Z,27.48
2017-12-31T07:40:01.002Z,19.48
2017-12-31T07:41:04.047Z,23.25
2017-12-31T07:42:07.300Z,21.23
2017-12-31T07:43:09.786Z,27.92
2017-12-31T07:44:13.966Z,21.85
2017-12-31T07:45:16.473Z,26.45
2017-12-31T07:46:19.732Z,21.95
2017-12-31T07:47:22.193Z,22.13
2017-12-31T07:48:24.684Z,20.37
2017-12-31T07:49:27.169Z,19.12
2017-12-31T07:50:30.416Z,34.45
2017-12-31T07:51:32.973Z,21.27
2017-12-31T07:52:35.462Z,26.73
2017-12-31T07:53:37.955Z,22.62
2017-12-31T07:54:40.460Z,21.98
2017-12-31T07:55:42.939Z,15.70
2017-12-31T07:56:45.417Z,25.60
2017-12-31T07:57:47.891Z,18.20
2017-12-31T07:58:50.363Z,27.37
2017-12-31T07:59:52.864Z,18.65
2017-12-31T08:00:55.352Z,23.58
2017-12-31T08:01:57.831Z,18.35
2017-12-31T08:03:01.369Z,24.20
2017-12-31T08:04:03.868Z,17.50
2017-12-31T08:05:06.392Z,19.70
2017-12-31T08:06:08.905Z,18.42
2017-12-31T08:07:12.552Z,16.02
2017-12-31T08:08:15.793Z,13.38
2017-12-31T08:09:18.287Z,20.73
2017-12-31T08:10:20.777Z,25.08
2017-12-31T08:11:23.272Z,15.73
2017-12-31T08:12:25.758Z,23.50
2017-12-31T08:13:28.233Z,14.30
2017-12-31T08:14:30.708Z,17.75
2017-12-31T08:15:33.351Z,10.32
2017-12-31T08:16:35.843Z,17.45
2017-12-31T08:17:38.341Z,11.73
2017-12-31T08:18:41.994Z,25.65
2017-12-31T08:19:44.507Z,21.98
2017-12-31T08:20:47.000Z,22.33
2017-12-31T08:21:50.261Z,13.73
2017-12-31T08:22:53.667Z,18.37
2017-12-31T08:23:56.152Z,16.30
2017-12-31T08:25:00.057Z,13.20
2017-12-31T08:26:02.539Z,19.77
2017-12-31T08:27:05.041Z,13.27
2017-12-31T08:28:07.517Z,17.12
2017-12-31T08:29:10.166Z,12.75
2017-12-31T08:30:12.725Z,14.38
2017-12-31T08:31:15.966Z,17.55
2017-12-31T08:32:18.479Z,17.20
2017-12-31T08:33:20.977Z,13.60
2017-12-31T08:34:23.583Z,10.80
2017-12-31T08:35:26.064Z,16.23
2017-12-31T08:36:28.552Z,13.23
2017-12-31T08:37:31.828Z,13.30
2017-12-31T08:38:34.316Z,13.25
2017-12-31T08:39:37.572Z,15.88
2017-12-31T08:40:40.064Z,18.10
2017-12-31T08:41:42.560Z,11.20
2017-12-31T08:42:45.064Z,18.73
2017-12-31T08:43:47.548Z,16.80
2017-12-31T08:44:50.014Z,14.10
2017-12-31T08:45:53.220Z,11.77
2017-12-31T08:46:55.711Z,10.98
2017-12-31T08:47:58.978Z,15.38
2017-12-31T08:49:01.487Z,15.40
2017-12-31T08:50:04.214Z,13.30
2017-12-31T08:51:06.707Z,12.25
2017-12-31T08:52:09.216Z,11.82
2017-12-31T08:53:12.729Z,13.82
2017-12-31T08:54:15.214Z,9.13
2017-12-31T08:55:17.699Z,14.02
2017-12-31T08:56:20.198Z,16.30
2017-12-31T08:57:23.425Z,12.82
2017-12-31T08:58:25.954Z,18.92
2017-12-31T08:59:29.198Z,16.37
2017-12-31T09:00:35.538Z,15.57
2017-12-31T09:01:38.018Z,19.70
2017-12-31T09:02:40.529Z,11.35
2017-12-31T09:03:43.044Z,15.90
2017-12-31T09:04:45.542Z,15.27
2017-12-31T09:05:48.021Z,14.07
2017-12-31T09:06:51.094Z,9.73
2017-12-31T09:07:53.616Z,9.07
2017-12-31T09:08:57.119Z,10.25
2017-12-31T09:10:00.373Z,13.48
2017-12-31T09:11:02.851Z,11.12
2017-12-31T09:12:06.536Z,24.27
2017-12-31T09:13:09.164Z,10.82
2017-12-31T09:14:15.219Z,7.47
2017-12-31T09:15:21.720Z,13.00
2017-12-31T09:16:24.416Z,11.63
2017-12-31T09:17:26.910Z,10.98
2017-12-31T09:18:29.435Z,9.68
2017-12-31T09:19:31.957Z,10.02
2017-12-31T09:20:35.225Z,14.87
2017-12-31T09:21:37.738Z,14.70
2017-12-31T09:22:40.995Z,12.02
2017-12-31T09:23:44.250Z,11.73
2017-12-31T09:24:47.350Z,18.73
2017-12-31T09:25:56.656Z,12.18
2017-12-31T09:26:59.181Z,17.73
2017-12-31T09:28:01.707Z,9.57
2017-12-31T09:29:04.176Z,9.57
2017-12-31T09:30:06.672Z,14.77
2017-12-31T09:31:09.192Z,11.40
2017-12-31T09:32:12.425Z,8.88
2017-12-31T09:33:14.922Z,12.05
2017-12-31T09:34:17.405Z,10.65
2017-12-31T09:35:20.721Z,14.85
2017-12-31T09:36:23.256Z,10.27
2017-12-31T09:37:25.767Z,15.27
2017-12-31T09:38:29.086Z,12.27
2017-12-31T09:39:31.579Z,11.93
2017-12-31T09:40:34.048Z,14.55
2017-12-31T09:41:36.769Z,11.48
2017-12-31T09:42:39.311Z,16.85
2017-12-31T09:43:41.784Z,6.47
2017-12-31T09:44:45.043Z,16.37
2017-12-31T09:45:47.542Z,7.15
2017-12-31T09:46:50.835Z,13.68
2017-12-31T09:47:54.106Z,10.73
2017-12-31T09:48:56.581Z,9.40
2017-12-31T09:49:59.087Z,17.08
2017-12-31T09:51:02.345Z,9.02
2017-12-31T09:52:04.858Z,6.57
2017-12-31T09:53:07.332Z,14.48
2017-12-31T09:54:11.491Z,12.23
2017-12-31T09:55:14.029Z,13.05
2017-12-31T09:56:17.290Z,9.05
2017-12-31T09:57:20.888Z,9.70
2017-12-31T09:58:23.404Z,8.30
2017-12-31T09:59:25.914Z,7.78
2017-12-31T10:00:28.428Z,13.88
2017-12-31T10:01:30.928Z,9.18
2017-12-31T10:02:33.458Z,11.50
2017-12-31T10:03:35.978Z,12.63
2017-12-31T10:04:39.292Z,10.90
2017-12-31T10:05:42.061Z,9.43
2017-12-31T10:06:44.591Z,10.43
2017-12-31T10:07:47.678Z,8.65
2017-12-31T10:08:51.240Z,11.23
2017-12-31T10:09:53.729Z,9.32
2017-12-31T10:10:56.673Z,9.25
2017-12-31T10:11:59.647Z,8.05
2017-12-31T10:13:02.920Z,9.10
2017-12-31T10:14:05.397Z,10.55
2017-12-31T10:15:08.676Z,7.32
2017-12-31T10:16:12.669Z,11.18
2017-12-31T10:17:15.155Z,4.35
2017-12-31T10:18:18.438Z,6.90
2017-12-31T10:19:20.936Z,7.72
2017-12-31T10:20:23.478Z,8.80
2017-12-31T10:21:26.778Z,12.80
2017-12-31T10:22:30.027Z,7.62
2017-12-31T10:23:32.499Z,11.68
2017-12-31T10:24:35.025Z,8.27
2017-12-31T10:25:37.503Z,13.18
2017-12-31T10:26:39.999Z,7.97
2017-12-31T10:27:43.448Z,9.25
2017-12-31T10:28:46.715Z,7.75
2017-12-31T10:29:49.225Z,17.77
2017-12-31T10:30:51.687Z,9.68
2017-12-31T10:31:54.162Z,10.80
2017-12-31T10:32:56.639Z,8.75
2017-12-31T10:33:59.161Z,9.82
2017-12-31T10:35:01.671Z,9.20
2017-12-31T10:36:04.160Z,10.93
2017-12-31T10:37:06.678Z,10.15
2017-12-31T10:38:09.240Z,7.93
2017-12-31T10:39:12.048Z,15.00
2017-12-31T10:40:15.330Z,8.48
2017-12-31T10:41:18.607Z,5.32
2017-12-31T10:42:21.075Z,13.82
2017-12-31T10:43:24.516Z,8.40
2017-12-31T10:44:27.015Z,13.85
2017-12-31T10:45:29.527Z,11.98
2017-12-31T10:46:32.805Z,10.38
2017-12-31T10:47:35.402Z,8.23
2017-12-31T10:48:37.930Z,9.52
2017-12-31T10:49:40.444Z,9.55
2017-12-31T10:50:42.918Z,12.48
2017-12-31T10:51:45.478Z,9.30
2017-12-31T10:52:48.738Z,11.70
2017-12-31T10:53:51.275Z,10.23
2017-12-31T10:54:53.794Z,7.57
2017-12-31T10:55:57.057Z,10.63
2017-12-31T10:56:59.575Z,5.80
2017-12-31T10:58:02.833Z,9.00
2017-12-31T10:59:05.349Z,6.47
2017-12-31T11:00:07.860Z,6.72
2017-12-31T11:01:11.190Z,12.02
2017-12-31T11:02:13.751Z,9.70
2017-12-31T11:03:16.228Z,10.00
2017-12-31T11:04:27.060Z,9.30
2017-12-31T11:05:29.594Z,4.03
2017-12-31T11:06:32.888Z,6.72
2017-12-31T11:07:35.510Z,11.30
2017-12-31T11:08:38.015Z,6.18
2017-12-31T11:09:41.294Z,6.68
2017-12-31T11:10:44.641Z,8.27
2017-12-31T11:11:47.237Z,12.80
2017-12-31T11:12:50.124Z,6.82
2017-12-31T11:13:52.698Z,6.05
2017-12-31T11:14:55.176Z,9.15
2017-12-31T11:15:57.649Z,4.87
2017-12-31T11:17:00.144Z,10.93
2017-12-31T11:18:02.675Z,12.52
2017-12-31T11:19:05.178Z,9.77
2017-12-31T11:20:09.112Z,8.02
2017-12-31T11:21:12.906Z,9.20
2017-12-31T11:22:15.426Z,15.60
2017-12-31T11:23:18.283Z,10.98
2017-12-31T11:24:20.948Z,11.15
2017-12-31T11:25:24.939Z,5.62
2017-12-31T11:26:27.558Z,5.20
2017-12-31T11:27:30.370Z,7.22
2017-12-31T11:28:34.894Z,18.73
2017-12-31T11:29:37.503Z,5.72
2017-12-31T11:30:40.271Z,9.65
2017-12-31T11:31:45.660Z,6.40
2017-12-31T11:32:49.551Z,9.00
2017-12-31T11:33:52.095Z,14.95
2017-12-31T11:34:55.142Z,8.52
2017-12-31T11:35:57.624Z,12.18
2017-12-31T11:37:00.931Z,9.23
2017-12-31T11:38:04.188Z,9.90
2017-12-31T11:39:06.681Z,7.55
2017-12-31T11:40:09.173Z,10.60
2017-12-31T11:41:11.801Z,5.60
2017-12-31T11:42:15.028Z,10.77
2017-12-31T11:43:17.567Z,8.43
2017-12-31T11:44:20.073Z,6.35
2017-12-31T11:45:22.567Z,6.87
2017-12-31T11:46:25.077Z,11.27
2017-12-31T11:47:27.547Z,4.72
2017-12-31T11:48:30.077Z,6.12
2017-12-31T11:49:32.555Z,11.32
2017-12-31T11:50:35.064Z,4.43
2017-12-31T11:51:37.539Z,7.35
2017-12-31T11:52:42.604Z,6.05
2017-12-31T11:53:45.125Z,7.60
2017-12-31T11:54:47.621Z,10.90
2017-12-31T11:55:50.888Z,7.87
2017-12-31T11:56:53.398Z,7.82
2017-12-31T11:57:55.885Z,5.50
2017-12-31T11:58:58.373Z,11.48
2017-12-31T12:00:00.878Z,7.18
2017-12-31T12:01:03.363Z,8.48
2017-12-31T12:02:06.633Z,13.65
2017-12-31T12:03:09.166Z,5.93
2017-12-31T12:04:11.834Z,7.35
2017-12-31T12:05:14.322Z,6.70
2017-12-31T12:06:16.821Z,5.50
2017-12-31T12:07:19.907Z,10.32
2017-12-31T12:08:22.396Z,7.62
2017-12-31T12:09:26.057Z,11.02
2017-12-31T12:10:28.597Z,6.18
2017-12-31T12:11:31.099Z,9.68
2017-12-31T12:12:33.651Z,3.80
2017-12-31T12:13:37.197Z,8.20
2017-12-31T12:14:39.758Z,7.07
2017-12-31T12:15:43.021Z,9.15
2017-12-31T12:16:45.506Z,8.27
2017-12-31T12:17:48.060Z,6.70
2017-12-31T12:18:50.532Z,8.05
2017-12-31T12:19:53.006Z,6.57
2017-12-31T12:20:55.502Z,6.93
2017-12-31T12:21:58.768Z,3.78
2017-12-31T12:23:01.267Z,7.93
2017-12-31T12:24:03.771Z,8.32
2017-12-31T12:25:06.281Z,5.95
2017-12-31T12:26:08.783Z,4.93
2017-12-31T12:27:11.566Z,5.35
2017-12-31T12:28:14.066Z,4.93
2017-12-31T12:29:16.547Z,6.65
2017-12-31T12:30:19.072Z,4.85
2017-12-31T12:31:21.579Z,8.13
2017-12-31T12:32:24.063Z,6.53
2017-12-31T12:33:26.572Z,9.73
2017-12-31T12:34:29.061Z,8.20
2017-12-31T12:35:32.312Z,7.57
2017-12-31T12:36:34.821Z,5.78
2017-12-31T12:37:38.098Z,8.63
2017-12-31T12:38:41.347Z,5.30
2017-12-31T12:39:43.833Z,5.80
2017-12-31T12:40:46.308Z,7.43
2017-12-31T12:41:48.829Z,6.20
2017-12-31T12:42:51.323Z,7.68
2017-12-31T12:43:54.747Z,6.40
2017-12-31T12:44:57.216Z,4.25
2017-12-31T12:45:59.721Z,5.45
2017-12-31T12:47:02.236Z,3.85
2017-12-31T12:48:04.719Z,5.62
2017-12-31T12:49:07.227Z,11.70
2017-12-31T12:50:09.985Z,7.10
2017-12-31T12:51:17.089Z,7.62
2017-12-31T12:52:19.656Z,7.47
2017-12-31T12:53:22.152Z,3.45
2017-12-31T12:54:24.683Z,5.10
2017-12-31T12:55:27.931Z,5.40
2017-12-31T12:56:30.428Z,9.23
2017-12-31T12:57:33.808Z,4.82
2017-12-31T12:58:36.312Z,6.37
2017-12-31T12:59:39.797Z,4.65
2017-12-31T13:00:43.048Z,8.50
2017-12-31T13:01:45.518Z,9.32
2017-12-31T13:02:48.268Z,12.20
2017-12-31T13:03:50.753Z,5.57
2017-12-31T13:04:53.244Z,3.50
2017-12-31T13:05:55.761Z,11.80
2017-12-31T13:06:58.260Z,5.65
2017-12-31T13:08:00.765Z,6.37
2017-12-31T13:09:03.985Z,4.62
2017-12-31T13:10:06.497Z,4.32
2017-12-31T13:11:09.874Z,4.07
2017-12-31T13:12:13.197Z,3.97
2017-12-31T13:13:15.700Z,4.15
2017-12-31T13:14:18.184Z,6.47
2017-12-31T13:15:20.707Z,3.22
2017-12-31T13:16:23.280Z,6.57
2017-12-31T13:17:25.769Z,8.73
2017-12-31T13:18:29.041Z,5.65
2017-12-31T13:19:31.627Z,4.65
2017-12-31T13:20:34.879Z,4.75
2017-12-31T13:21:37.392Z,5.68
2017-12-31T13:22:39.871Z,8.52
2017-12-31T13:23:43.133Z,4.35
2017-12-31T13:24:45.653Z,8.10
2017-12-31T13:25:48.197Z,6.40
2017-12-31T13:26:52.776Z,9.45
2017-12-31T13:27:56.017Z,7.37
2017-12-31T13:29:00.073Z,9.70
2017-12-31T13:30:02.811Z,5.12
2017-12-31T13:31:05.650Z,7.87
2017-12-31T13:32:08.199Z,6.93
2017-12-31T13:33:12.182Z,7.47
2017-12-31T13:34:14.718Z,4.05
2017-12-31T13:35:17.990Z,4.12
2017-12-31T13:36:20.738Z,5.47
2017-12-31T13:37:23.216Z,8.55
2017-12-31T13:38:25.715Z,7.80
2017-12-31T13:39:29.019Z,6.55
2017-12-31T13:40:32.286Z,4.43
2017-12-31T13:41:35.590Z,5.03
2017-12-31T13:42:38.894Z,4.37
2017-12-31T13:43:41.445Z,10.82
2017-12-31T13:44:45.294Z,2.65
2017-12-31T13:45:47.831Z,5.87
2017-12-31T13:46:51.118Z,5.35
2017-12-31T13:47:55.315Z,4.97
2017-12-31T13:48:57.805Z,8.43